sensor_id;sensor_type;location;lat;lon;timestamp;P1;durP1;ratioP1;P2;durP2;ratioP2
52041;SDS011;38052;45.944;13.624;2023-03-14T00:01:23;12.32;;;7.00;;
52041;SDS011;38052;45.944;13.624;2023-03-14T00:03:50;13.40;;;7.50;;
52041;SDS011;38052;45.944;13.624;2023-03-14T00:06:16;10.88;;;6.45;;
52041;SDS011;38052;45.944;13.624;2023-03-14T00:08:43;11.80;;;6.97;;
52041;SDS011;38052;45.944;13.624;2023-03-14T00:11:11;11.85;;;6.80;;
52041;SDS011;38052;45.944;13.624;2023-03-14T00:13:37;14.73;;;7.38;;
52041;SDS011;38052;45.944;13.624;2023-03-14T00:16:08;12.07;;;6.50;;
52041;SDS011;38052;45.944;13.624;2023-03-14T00:18:34;10.23;;;6.28;;
52041;SDS011;38052;45.944;13.624;2023-03-14T00:21:01;9.43;;;5.95;;
52041;SDS011;38052;45.944;13.624;2023-03-14T00:23:29;17.95;;;7.43;;
52041;SDS011;38052;45.944;13.624;2023-03-14T00:26:02;12.48;;;7.00;;
52041;SDS011;38052;45.944;13.624;2023-03-14T00:28:29;11.98;;;7.15;;
52041;SDS011;38052;45.944;13.624;2023-03-14T00:30:56;14.25;;;7.10;;
52041;SDS011;38052;45.944;13.624;2023-03-14T00:33:22;11.77;;;6.28;;
52041;SDS011;38052;45.944;13.624;2023-03-14T00:35:53;14.60;;;7.75;;
52041;SDS011;38052;45.944;13.624;2023-03-14T00:38:19;9.68;;;5.88;;
52041;SDS011;38052;45.944;13.624;2023-03-14T00:40:46;10.00;;;6.45;;
52041;SDS011;38052;45.944;13.624;2023-03-14T00:43:12;12.57;;;5.97;;
52041;SDS011;38052;45.944;13.624;2023-03-14T00:45:39;15.05;;;6.22;;
52041;SDS011;38052;45.944;13.624;2023-03-14T00:48:05;13.45;;;6.40;;
52041;SDS011;38052;45.944;13.624;2023-03-14T00:50:32;12.75;;;7.03;;
52041;SDS011;38052;45.944;13.624;2023-03-14T00:52:58;10.63;;;6.03;;
52041;SDS011;38052;45.944;13.624;2023-03-14T00:55:25;12.45;;;6.68;;
52041;SDS011;38052;45.944;13.624;2023-03-14T00:57:52;9.05;;;5.78;;
52041;SDS011;38052;45.944;13.624;2023-03-14T01:00:18;11.82;;;5.65;;
52041;SDS011;38052;45.944;13.624;2023-03-14T01:02:45;8.10;;;5.43;;
52041;SDS011;38052;45.944;13.624;2023-03-14T01:05:11;6.82;;;5.68;;
52041;SDS011;38052;45.944;13.624;2023-03-14T01:07:37;7.45;;;5.75;;
52041;SDS011;38052;45.944;13.624;2023-03-14T01:10:04;15.95;;;6.93;;
52041;SDS011;38052;45.944;13.624;2023-03-14T01:12:31;12.88;;;6.53;;
52041;SDS011;38052;45.944;13.624;2023-03-14T01:14:57;16.05;;;8.68;;
52041;SDS011;38052;45.944;13.624;2023-03-14T01:17:24;16.70;;;12.32;;
52041;SDS011;38052;45.944;13.624;2023-03-14T01:19:50;16.02;;;11.70;;
52041;SDS011;38052;45.944;13.624;2023-03-14T01:22:17;16.88;;;10.48;;
52041;SDS011;38052;45.944;13.624;2023-03-14T01:24:43;16.77;;;9.40;;
52041;SDS011;38052;45.944;13.624;2023-03-14T01:27:10;13.43;;;8.40;;
52041;SDS011;38052;45.944;13.624;2023-03-14T01:29:37;12.43;;;7.90;;
52041;SDS011;38052;45.944;13.624;2023-03-14T01:32:04;11.85;;;7.28;;
52041;SDS011;38052;45.944;13.624;2023-03-14T01:34:30;11.15;;;6.40;;
52041;SDS011;38052;45.944;13.624;2023-03-14T01:36:57;11.77;;;6.45;;
52041;SDS011;38052;45.944;13.624;2023-03-14T01:39:23;10.18;;;6.15;;
52041;SDS011;38052;45.944;13.624;2023-03-14T01:41:49;9.43;;;7.40;;
52041;SDS011;38052;45.944;13.624;2023-03-14T01:44:16;15.13;;;7.78;;
52041;SDS011;38052;45.944;13.624;2023-03-14T01:46:45;15.27;;;10.23;;
52041;SDS011;38052;45.944;13.624;2023-03-14T01:49:13;13.25;;;7.97;;
52041;SDS011;38052;45.944;13.624;2023-03-14T01:54:18;10.15;;;6.72;;
52041;SDS011;38052;45.944;13.624;2023-03-14T01:56:47;12.77;;;6.18;;
52041;SDS011;38052;45.944;13.624;2023-03-14T01:59:15;9.23;;;6.38;;
52041;SDS011;38052;45.944;13.624;2023-03-14T02:01:41;15.35;;;6.72;;
52041;SDS011;38052;45.944;13.624;2023-03-14T02:04:08;9.75;;;7.68;;
52041;SDS011;38052;45.944;13.624;2023-03-14T02:06:58;9.63;;;6.43;;
52041;SDS011;38052;45.944;13.624;2023-03-14T02:09:21;12.50;;;6.22;;
52041;SDS011;38052;45.944;13.624;2023-03-14T02:11:48;12.07;;;7.47;;
52041;SDS011;38052;45.944;13.624;2023-03-14T02:14:21;10.95;;;6.75;;
52041;SDS011;38052;45.944;13.624;2023-03-14T02:16:51;9.25;;;6.32;;
52041;SDS011;38052;45.944;13.624;2023-03-14T02:19:18;8.93;;;5.25;;
52041;SDS011;38052;45.944;13.624;2023-03-14T02:29:27;11.18;;;6.38;;
52041;SDS011;38052;45.944;13.624;2023-03-14T02:31:54;12.93;;;5.88;;
52041;SDS011;38052;45.944;13.624;2023-03-14T02:34:21;13.50;;;6.40;;
52041;SDS011;38052;45.944;13.624;2023-03-14T02:36:47;10.45;;;6.63;;
52041;SDS011;38052;45.944;13.624;2023-03-14T02:39:14;10.30;;;8.00;;
52041;SDS011;38052;45.944;13.624;2023-03-14T02:41:42;14.38;;;8.98;;
52041;SDS011;38052;45.944;13.624;2023-03-14T02:44:10;13.00;;;7.72;;
52041;SDS011;38052;45.944;13.624;2023-03-14T02:46:36;12.35;;;6.50;;
52041;SDS011;38052;45.944;13.624;2023-03-14T02:49:10;15.38;;;6.75;;
52041;SDS011;38052;45.944;13.624;2023-03-14T02:51:36;11.63;;;7.15;;
52041;SDS011;38052;45.944;13.624;2023-03-14T02:54:03;10.10;;;6.50;;
52041;SDS011;38052;45.944;13.624;2023-03-14T02:56:29;12.75;;;6.80;;
52041;SDS011;38052;45.944;13.624;2023-03-14T02:58:56;11.45;;;7.95;;
52041;SDS011;38052;45.944;13.624;2023-03-14T03:01:23;14.43;;;7.90;;
52041;SDS011;38052;45.944;13.624;2023-03-14T03:03:49;9.18;;;6.53;;
52041;SDS011;38052;45.944;13.624;2023-03-14T03:06:16;10.27;;;6.40;;
52041;SDS011;38052;45.944;13.624;2023-03-14T03:08:42;11.95;;;7.07;;
52041;SDS011;38052;45.944;13.624;2023-03-14T03:11:09;11.13;;;6.55;;
52041;SDS011;38052;45.944;13.624;2023-03-14T03:13:35;12.63;;;6.53;;
52041;SDS011;38052;45.944;13.624;2023-03-14T03:16:02;10.38;;;6.07;;
52041;SDS011;38052;45.944;13.624;2023-03-14T03:18:29;13.82;;;7.00;;
52041;SDS011;38052;45.944;13.624;2023-03-14T03:20:59;11.45;;;7.45;;
52041;SDS011;38052;45.944;13.624;2023-03-14T03:23:25;13.77;;;7.53;;
52041;SDS011;38052;45.944;13.624;2023-03-14T03:25:52;13.02;;;6.85;;
52041;SDS011;38052;45.944;13.624;2023-03-14T03:28:19;13.30;;;7.35;;
52041;SDS011;38052;45.944;13.624;2023-03-14T03:30:45;13.82;;;7.55;;
52041;SDS011;38052;45.944;13.624;2023-03-14T03:33:12;12.05;;;7.15;;
52041;SDS011;38052;45.944;13.624;2023-03-14T03:35:42;13.18;;;7.35;;
52041;SDS011;38052;45.944;13.624;2023-03-14T03:38:08;10.40;;;6.75;;
52041;SDS011;38052;45.944;13.624;2023-03-14T03:40:34;18.05;;;8.88;;
52041;SDS011;38052;45.944;13.624;2023-03-14T03:43:01;15.13;;;8.73;;
52041;SDS011;38052;45.944;13.624;2023-03-14T03:45:28;10.63;;;6.85;;
52041;SDS011;38052;45.944;13.624;2023-03-14T03:47:54;15.98;;;8.65;;
52041;SDS011;38052;45.944;13.624;2023-03-14T03:52:57;13.20;;;8.65;;
52041;SDS011;38052;45.944;13.624;2023-03-14T03:55:24;14.75;;;9.35;;
52041;SDS011;38052;45.944;13.624;2023-03-14T03:57:51;10.50;;;8.95;;
52041;SDS011;38052;45.944;13.624;2023-03-14T04:00:17;14.90;;;9.65;;
52041;SDS011;38052;45.944;13.624;2023-03-14T04:02:44;22.90;;;10.25;;
52041;SDS011;38052;45.944;13.624;2023-03-14T04:05:10;18.45;;;10.45;;
52041;SDS011;38052;45.944;13.624;2023-03-14T04:07:37;14.02;;;9.50;;
52041;SDS011;38052;45.944;13.624;2023-03-14T04:10:03;18.23;;;11.43;;
52041;SDS011;38052;45.944;13.624;2023-03-14T04:12:29;13.63;;;8.98;;
52041;SDS011;38052;45.944;13.624;2023-03-14T04:14:56;11.57;;;8.70;;
52041;SDS011;38052;45.944;13.624;2023-03-14T04:17:23;13.35;;;8.13;;
52041;SDS011;38052;45.944;13.624;2023-03-14T04:19:50;11.90;;;7.63;;
52041;SDS011;38052;45.944;13.624;2023-03-14T04:22:18;9.60;;;7.05;;
52041;SDS011;38052;45.944;13.624;2023-03-14T04:24:45;11.98;;;8.27;;
52041;SDS011;38052;45.944;13.624;2023-03-14T04:27:12;11.65;;;7.38;;
52041;SDS011;38052;45.944;13.624;2023-03-14T04:29:39;13.95;;;7.13;;
52041;SDS011;38052;45.944;13.624;2023-03-14T04:32:09;10.82;;;5.03;;
52041;SDS011;38052;45.944;13.624;2023-03-14T04:34:36;8.15;;;4.28;;
52041;SDS011;38052;45.944;13.624;2023-03-14T04:37:02;11.57;;;3.65;;
52041;SDS011;38052;45.944;13.624;2023-03-14T04:39:29;5.25;;;2.85;;
52041;SDS011;38052;45.944;13.624;2023-03-14T04:41:56;8.82;;;2.35;;
52041;SDS011;38052;45.944;13.624;2023-03-14T04:44:22;9.68;;;1.88;;
52041;SDS011;38052;45.944;13.624;2023-03-14T04:46:48;9.75;;;2.67;;
52041;SDS011;38052;45.944;13.624;2023-03-14T04:49:15;16.02;;;2.28;;
52041;SDS011;38052;45.944;13.624;2023-03-14T04:51:42;4.45;;;2.00;;
52041;SDS011;38052;45.944;13.624;2023-03-14T04:54:08;9.00;;;1.65;;
52041;SDS011;38052;45.944;13.624;2023-03-14T04:56:35;7.13;;;1.70;;
52041;SDS011;38052;45.944;13.624;2023-03-14T04:59:02;10.48;;;2.00;;
52041;SDS011;38052;45.944;13.624;2023-03-14T05:01:31;6.55;;;1.77;;
52041;SDS011;38052;45.944;13.624;2023-03-14T05:03:58;7.50;;;2.38;;
52041;SDS011;38052;45.944;13.624;2023-03-14T05:06:24;8.43;;;1.95;;
52041;SDS011;38052;45.944;13.624;2023-03-14T05:08:52;7.25;;;1.45;;
52041;SDS011;38052;45.944;13.624;2023-03-14T05:11:18;6.20;;;1.83;;
52041;SDS011;38052;45.944;13.624;2023-03-14T05:13:45;6.32;;;1.20;;
52041;SDS011;38052;45.944;13.624;2023-03-14T05:16:11;8.48;;;1.67;;
52041;SDS011;38052;45.944;13.624;2023-03-14T05:18:38;8.98;;;1.60;;
52041;SDS011;38052;45.944;13.624;2023-03-14T05:21:04;8.98;;;1.55;;
52041;SDS011;38052;45.944;13.624;2023-03-14T05:23:30;9.75;;;1.58;;
52041;SDS011;38052;45.944;13.624;2023-03-14T05:25:58;7.53;;;1.48;;
52041;SDS011;38052;45.944;13.624;2023-03-14T05:28:24;11.40;;;2.00;;
52041;SDS011;38052;45.944;13.624;2023-03-14T05:30:54;5.83;;;1.20;;
52041;SDS011;38052;45.944;13.624;2023-03-14T05:33:21;10.32;;;1.38;;
52041;SDS011;38052;45.944;13.624;2023-03-14T05:35:47;9.82;;;1.50;;
52041;SDS011;38052;45.944;13.624;2023-03-14T05:38:14;6.40;;;1.48;;
52041;SDS011;38052;45.944;13.624;2023-03-14T05:40:41;9.88;;;2.13;;
52041;SDS011;38052;45.944;13.624;2023-03-14T05:43:09;8.95;;;2.50;;
52041;SDS011;38052;45.944;13.624;2023-03-14T05:45:35;10.50;;;2.13;;
52041;SDS011;38052;45.944;13.624;2023-03-14T05:48:01;12.75;;;2.03;;
52041;SDS011;38052;45.944;13.624;2023-03-14T05:50:27;8.88;;;2.50;;
52041;SDS011;38052;45.944;13.624;2023-03-14T05:52:53;12.70;;;2.13;;
52041;SDS011;38052;45.944;13.624;2023-03-14T05:55:20;8.77;;;1.95;;
52041;SDS011;38052;45.944;13.624;2023-03-14T05:57:47;15.90;;;2.03;;
52041;SDS011;38052;45.944;13.624;2023-03-14T06:00:13;7.55;;;2.13;;
52041;SDS011;38052;45.944;13.624;2023-03-14T06:02:40;8.98;;;1.83;;
52041;SDS011;38052;45.944;13.624;2023-03-14T06:05:07;10.50;;;2.80;;
52041;SDS011;38052;45.944;13.624;2023-03-14T06:07:33;9.57;;;1.50;;
52041;SDS011;38052;45.944;13.624;2023-03-14T06:10:03;9.68;;;1.52;;
52041;SDS011;38052;45.944;13.624;2023-03-14T06:12:30;7.07;;;1.88;;
52041;SDS011;38052;45.944;13.624;2023-03-14T06:14:56;6.88;;;2.00;;
52041;SDS011;38052;45.944;13.624;2023-03-14T06:17:26;5.68;;;1.70;;
52041;SDS011;38052;45.944;13.624;2023-03-14T06:19:52;7.75;;;2.03;;
52041;SDS011;38052;45.944;13.624;2023-03-14T06:22:19;7.57;;;1.58;;
52041;SDS011;38052;45.944;13.624;2023-03-14T06:24:46;7.90;;;1.80;;
52041;SDS011;38052;45.944;13.624;2023-03-14T06:27:13;6.13;;;1.13;;
52041;SDS011;38052;45.944;13.624;2023-03-14T06:29:39;14.88;;;3.38;;
52041;SDS011;38052;45.944;13.624;2023-03-14T06:32:06;8.32;;;2.15;;
52041;SDS011;38052;45.944;13.624;2023-03-14T06:34:32;8.25;;;1.92;;
52041;SDS011;38052;45.944;13.624;2023-03-14T06:36:58;7.63;;;1.75;;
52041;SDS011;38052;45.944;13.624;2023-03-14T06:39:25;12.57;;;1.85;;
52041;SDS011;38052;45.944;13.624;2023-03-14T06:41:51;8.35;;;1.90;;
52041;SDS011;38052;45.944;13.624;2023-03-14T06:44:18;10.30;;;1.65;;
52041;SDS011;38052;45.944;13.624;2023-03-14T06:46:45;7.18;;;1.98;;
52041;SDS011;38052;45.944;13.624;2023-03-14T06:49:11;10.85;;;2.25;;
52041;SDS011;38052;45.944;13.624;2023-03-14T06:51:38;8.35;;;2.17;;
52041;SDS011;38052;45.944;13.624;2023-03-14T06:54:04;11.80;;;1.75;;
52041;SDS011;38052;45.944;13.624;2023-03-14T06:56:30;7.85;;;1.67;;
52041;SDS011;38052;45.944;13.624;2023-03-14T06:58:57;7.35;;;1.50;;
52041;SDS011;38052;45.944;13.624;2023-03-14T07:01:25;6.50;;;1.40;;
52041;SDS011;38052;45.944;13.624;2023-03-14T07:03:51;7.57;;;1.50;;
52041;SDS011;38052;45.944;13.624;2023-03-14T07:06:18;9.00;;;1.77;;
52041;SDS011;38052;45.944;13.624;2023-03-14T07:08:45;7.07;;;1.27;;
52041;SDS011;38052;45.944;13.624;2023-03-14T07:11:11;6.60;;;1.58;;
52041;SDS011;38052;45.944;13.624;2023-03-14T07:13:39;9.25;;;3.00;;
52041;SDS011;38052;45.944;13.624;2023-03-14T07:16:05;5.75;;;1.52;;
52041;SDS011;38052;45.944;13.624;2023-03-14T07:18:32;7.28;;;1.60;;
52041;SDS011;38052;45.944;13.624;2023-03-14T07:20:58;9.25;;;2.03;;
52041;SDS011;38052;45.944;13.624;2023-03-14T07:23:25;7.28;;;1.45;;
52041;SDS011;38052;45.944;13.624;2023-03-14T07:25:52;5.57;;;1.33;;
52041;SDS011;38052;45.944;13.624;2023-03-14T07:28:18;4.65;;;0.95;;
52041;SDS011;38052;45.944;13.624;2023-03-14T07:30:48;5.75;;;1.77;;
52041;SDS011;38052;45.944;13.624;2023-03-14T07:33:15;5.63;;;1.30;;
52041;SDS011;38052;45.944;13.624;2023-03-14T07:35:41;8.32;;;1.52;;
52041;SDS011;38052;45.944;13.624;2023-03-14T07:38:07;4.60;;;1.73;;
52041;SDS011;38052;45.944;13.624;2023-03-14T07:40:34;8.07;;;1.80;;
52041;SDS011;38052;45.944;13.624;2023-03-14T07:43:01;6.40;;;1.73;;
52041;SDS011;38052;45.944;13.624;2023-03-14T07:45:28;6.45;;;1.52;;
52041;SDS011;38052;45.944;13.624;2023-03-14T07:47:54;3.95;;;1.10;;
52041;SDS011;38052;45.944;13.624;2023-03-14T07:50:22;5.88;;;1.08;;
52041;SDS011;38052;45.944;13.624;2023-03-14T07:52:49;4.82;;;2.28;;
52041;SDS011;38052;45.944;13.624;2023-03-14T07:55:15;5.63;;;1.60;;
52041;SDS011;38052;45.944;13.624;2023-03-14T07:57:41;7.68;;;1.85;;
52041;SDS011;38052;45.944;13.624;2023-03-14T08:00:08;6.25;;;2.63;;
52041;SDS011;38052;45.944;13.624;2023-03-14T08:02:34;9.75;;;1.75;;
52041;SDS011;38052;45.944;13.624;2023-03-14T08:05:01;9.23;;;2.40;;
52041;SDS011;38052;45.944;13.624;2023-03-14T08:07:28;4.57;;;1.67;;
52041;SDS011;38052;45.944;13.624;2023-03-14T08:09:55;5.90;;;1.85;;
52041;SDS011;38052;45.944;13.624;2023-03-14T08:12:22;6.80;;;1.40;;
52041;SDS011;38052;45.944;13.624;2023-03-14T08:14:48;10.20;;;1.63;;
52041;SDS011;38052;45.944;13.624;2023-03-14T08:17:15;6.93;;;1.90;;
52041;SDS011;38052;45.944;13.624;2023-03-14T08:19:41;10.30;;;2.05;;
52041;SDS011;38052;45.944;13.624;2023-03-14T08:22:08;5.72;;;1.23;;
52041;SDS011;38052;45.944;13.624;2023-03-14T08:24:34;5.03;;;1.58;;
52041;SDS011;38052;45.944;13.624;2023-03-14T08:27:01;6.72;;;1.67;;
52041;SDS011;38052;45.944;13.624;2023-03-14T08:29:28;6.75;;;1.55;;
52041;SDS011;38052;45.944;13.624;2023-03-14T08:31:54;6.95;;;3.00;;
52041;SDS011;38052;45.944;13.624;2023-03-14T08:34:21;7.13;;;2.22;;
52041;SDS011;38052;45.944;13.624;2023-03-14T08:36:47;7.82;;;1.92;;
52041;SDS011;38052;45.944;13.624;2023-03-14T08:39:14;8.30;;;2.78;;
52041;SDS011;38052;45.944;13.624;2023-03-14T08:41:40;7.72;;;1.83;;
52041;SDS011;38052;45.944;13.624;2023-03-14T08:44:08;6.00;;;1.58;;
52041;SDS011;38052;45.944;13.624;2023-03-14T08:46:34;9.05;;;1.80;;
52041;SDS011;38052;45.944;13.624;2023-03-14T08:49:01;10.35;;;2.13;;
52041;SDS011;38052;45.944;13.624;2023-03-14T08:51:27;6.90;;;1.73;;
52041;SDS011;38052;45.944;13.624;2023-03-14T08:53:54;8.68;;;2.15;;
52041;SDS011;38052;45.944;13.624;2023-03-14T08:56:20;4.00;;;1.95;;
52041;SDS011;38052;45.944;13.624;2023-03-14T08:58:46;4.90;;;2.15;;
52041;SDS011;38052;45.944;13.624;2023-03-14T09:01:13;7.43;;;2.35;;
52041;SDS011;38052;45.944;13.624;2023-03-14T09:03:39;10.00;;;3.42;;
52041;SDS011;38052;45.944;13.624;2023-03-14T09:06:07;10.75;;;3.88;;
52041;SDS011;38052;45.944;13.624;2023-03-14T09:08:35;13.18;;;4.07;;
52041;SDS011;38052;45.944;13.624;2023-03-14T09:11:01;19.92;;;4.45;;
52041;SDS011;38052;45.944;13.624;2023-03-14T09:13:27;13.93;;;4.32;;
52041;SDS011;38052;45.944;13.624;2023-03-14T09:15:54;8.43;;;3.90;;
52041;SDS011;38052;45.944;13.624;2023-03-14T09:18:21;13.68;;;5.10;;
52041;SDS011;38052;45.944;13.624;2023-03-14T09:20:47;14.40;;;5.07;;
52041;SDS011;38052;45.944;13.624;2023-03-14T09:23:13;12.77;;;4.93;;
52041;SDS011;38052;45.944;13.624;2023-03-14T09:25:40;19.60;;;6.68;;
52041;SDS011;38052;45.944;13.624;2023-03-14T09:28:06;13.60;;;5.85;;
52041;SDS011;38052;45.944;13.624;2023-03-14T09:30:33;12.40;;;5.05;;
52041;SDS011;38052;45.944;13.624;2023-03-14T09:32:59;15.75;;;5.20;;
52041;SDS011;38052;45.944;13.624;2023-03-14T09:35:26;12.40;;;3.85;;
52041;SDS011;38052;45.944;13.624;2023-03-14T09:37:53;9.02;;;5.43;;
52041;SDS011;38052;45.944;13.624;2023-03-14T09:40:19;10.82;;;4.80;;
52041;SDS011;38052;45.944;13.624;2023-03-14T09:42:47;9.27;;;4.72;;
52041;SDS011;38052;45.944;13.624;2023-03-14T09:45:23;12.27;;;4.53;;
52041;SDS011;38052;45.944;13.624;2023-03-14T09:47:51;8.95;;;4.78;;
52041;SDS011;38052;45.944;13.624;2023-03-14T09:50:18;11.13;;;5.85;;
52041;SDS011;38052;45.944;13.624;2023-03-14T09:52:45;11.10;;;4.43;;
52041;SDS011;38052;45.944;13.624;2023-03-14T09:55:13;12.18;;;5.45;;
52041;SDS011;38052;45.944;13.624;2023-03-14T09:57:40;6.82;;;3.40;;
52041;SDS011;38052;45.944;13.624;2023-03-14T10:00:13;13.02;;;4.95;;
52041;SDS011;38052;45.944;13.624;2023-03-14T10:02:41;9.75;;;3.90;;
52041;SDS011;38052;45.944;13.624;2023-03-14T10:05:13;7.13;;;3.92;;
52041;SDS011;38052;45.944;13.624;2023-03-14T10:07:40;12.77;;;3.15;;
52041;SDS011;38052;45.944;13.624;2023-03-14T10:10:19;12.40;;;3.40;;
52041;SDS011;38052;45.944;13.624;2023-03-14T10:12:56;7.80;;;2.17;;
52041;SDS011;38052;45.944;13.624;2023-03-14T10:15:27;12.43;;;3.17;;
52041;SDS011;38052;45.944;13.624;2023-03-14T10:17:58;13.07;;;3.05;;
52041;SDS011;38052;45.944;13.624;2023-03-14T10:22:57;8.68;;;2.40;;
52041;SDS011;38052;45.944;13.624;2023-03-14T10:25:28;5.15;;;2.40;;
52041;SDS011;38052;45.944;13.624;2023-03-14T10:27:54;8.05;;;2.97;;
52041;SDS011;38052;45.944;13.624;2023-03-14T10:30:33;7.50;;;3.47;;
52041;SDS011;38052;45.944;13.624;2023-03-14T10:33:07;7.10;;;3.25;;
52041;SDS011;38052;45.944;13.624;2023-03-14T10:35:34;8.35;;;2.90;;
52041;SDS011;38052;45.944;13.624;2023-03-14T10:38:01;7.22;;;2.63;;
52041;SDS011;38052;45.944;13.624;2023-03-14T10:40:30;12.02;;;2.42;;
52041;SDS011;38052;45.944;13.624;2023-03-14T10:42:57;5.78;;;2.10;;
52041;SDS011;38052;45.944;13.624;2023-03-14T10:45:29;15.00;;;3.50;;
52041;SDS011;38052;45.944;13.624;2023-03-14T10:47:58;6.03;;;2.25;;
52041;SDS011;38052;45.944;13.624;2023-03-14T10:50:26;14.10;;;2.63;;
52041;SDS011;38052;45.944;13.624;2023-03-14T10:52:53;7.13;;;2.60;;
52041;SDS011;38052;45.944;13.624;2023-03-14T10:55:19;7.82;;;2.30;;
52041;SDS011;38052;45.944;13.624;2023-03-14T10:57:45;13.77;;;2.90;;
52041;SDS011;38052;45.944;13.624;2023-03-14T11:00:16;6.72;;;2.42;;
52041;SDS011;38052;45.944;13.624;2023-03-14T11:07:44;5.28;;;1.95;;
52041;SDS011;38052;45.944;13.624;2023-03-14T11:10:11;7.25;;;2.35;;
52041;SDS011;38052;45.944;13.624;2023-03-14T11:15:13;9.80;;;1.58;;
52041;SDS011;38052;45.944;13.624;2023-03-14T11:22:47;5.60;;;1.80;;
52041;SDS011;38052;45.944;13.624;2023-03-14T11:32:44;6.53;;;1.67;;
52041;SDS011;38052;45.944;13.624;2023-03-14T11:35:15;5.38;;;1.65;;
52041;SDS011;38052;45.944;13.624;2023-03-14T11:42:42;7.88;;;2.92;;
52041;SDS011;38052;45.944;13.624;2023-03-14T11:45:14;11.30;;;3.38;;
52041;SDS011;38052;45.944;13.624;2023-03-14T11:47:42;9.50;;;2.10;;
52041;SDS011;38052;45.944;13.624;2023-03-14T11:55:46;5.88;;;1.80;;
52041;SDS011;38052;45.944;13.624;2023-03-14T11:58:21;4.40;;;2.00;;
52041;SDS011;38052;45.944;13.624;2023-03-14T12:00:51;5.53;;;2.20;;
52041;SDS011;38052;45.944;13.624;2023-03-14T12:05:50;9.23;;;1.67;;
52041;SDS011;38052;45.944;13.624;2023-03-14T12:10:46;6.80;;;1.30;;
52041;SDS011;38052;45.944;13.624;2023-03-14T12:13:15;5.95;;;1.38;;
52041;SDS011;38052;45.944;13.624;2023-03-14T12:15:56;7.25;;;1.63;;
52041;SDS011;38052;45.944;13.624;2023-03-14T12:18:36;6.45;;;2.00;;
52041;SDS011;38052;45.944;13.624;2023-03-14T12:21:04;5.30;;;1.20;;
52041;SDS011;38052;45.944;13.624;2023-03-14T12:23:36;8.63;;;1.98;;
52041;SDS011;38052;45.944;13.624;2023-03-14T12:26:06;5.78;;;1.40;;
52041;SDS011;38052;45.944;13.624;2023-03-14T12:28:33;5.22;;;1.70;;
52041;SDS011;38052;45.944;13.624;2023-03-14T12:33:45;5.95;;;1.77;;
52041;SDS011;38052;45.944;13.624;2023-03-14T12:36:12;37.67;;;7.70;;
52041;SDS011;38052;45.944;13.624;2023-03-14T12:41:17;5.82;;;2.00;;
52041;SDS011;38052;45.944;13.624;2023-03-14T12:43:45;6.65;;;1.63;;
52041;SDS011;38052;45.944;13.624;2023-03-14T12:51:14;7.20;;;1.63;;
52041;SDS011;38052;45.944;13.624;2023-03-14T13:01:47;3.88;;;1.80;;
52041;SDS011;38052;45.944;13.624;2023-03-14T13:04:14;7.00;;;1.42;;
52041;SDS011;38052;45.944;13.624;2023-03-14T13:11:50;8.40;;;1.88;;
52041;SDS011;38052;45.944;13.624;2023-03-14T13:14:17;3.85;;;2.05;;
52041;SDS011;38052;45.944;13.624;2023-03-14T13:16:46;6.00;;;2.60;;
52041;SDS011;38052;45.944;13.624;2023-03-14T13:19:25;10.63;;;2.10;;
52041;SDS011;38052;45.944;13.624;2023-03-14T13:22:02;8.00;;;2.50;;
52041;SDS011;38052;45.944;13.624;2023-03-14T13:24:29;12.35;;;3.65;;
52041;SDS011;38052;45.944;13.624;2023-03-14T13:26:59;10.90;;;2.90;;
52041;SDS011;38052;45.944;13.624;2023-03-14T13:31:54;7.43;;;2.33;;
52041;SDS011;38052;45.944;13.624;2023-03-14T13:34:24;14.82;;;2.42;;
52041;SDS011;38052;45.944;13.624;2023-03-14T13:36:52;8.50;;;2.30;;
52041;SDS011;38052;45.944;13.624;2023-03-14T13:39:19;8.90;;;3.17;;
52041;SDS011;38052;45.944;13.624;2023-03-14T13:41:49;5.25;;;2.35;;
52041;SDS011;38052;45.944;13.624;2023-03-14T13:44:17;10.90;;;2.80;;
52041;SDS011;38052;45.944;13.624;2023-03-14T13:46:44;11.68;;;2.83;;
52041;SDS011;38052;45.944;13.624;2023-03-14T13:49:12;7.18;;;2.17;;
52041;SDS011;38052;45.944;13.624;2023-03-14T13:51:39;7.35;;;3.13;;
52041;SDS011;38052;45.944;13.624;2023-03-14T13:54:15;8.77;;;2.95;;
52041;SDS011;38052;45.944;13.624;2023-03-14T13:56:42;5.82;;;2.15;;
52041;SDS011;38052;45.944;13.624;2023-03-14T13:59:21;10.52;;;3.08;;
52041;SDS011;38052;45.944;13.624;2023-03-14T14:01:48;9.57;;;3.83;;
52041;SDS011;38052;45.944;13.624;2023-03-14T14:04:15;9.43;;;3.63;;
52041;SDS011;38052;45.944;13.624;2023-03-14T14:06:44;6.38;;;2.50;;
52041;SDS011;38052;45.944;13.624;2023-03-14T14:14:21;14.23;;;4.00;;
52041;SDS011;38052;45.944;13.624;2023-03-14T14:16:48;10.45;;;3.38;;
52041;SDS011;38052;45.944;13.624;2023-03-14T14:19:15;12.57;;;3.38;;
52041;SDS011;38052;45.944;13.624;2023-03-14T14:21:42;9.85;;;3.45;;
52041;SDS011;38052;45.944;13.624;2023-03-14T14:24:11;9.63;;;3.35;;
52041;SDS011;38052;45.944;13.624;2023-03-14T14:26:46;25.35;;;14.65;;
52041;SDS011;38052;45.944;13.624;2023-03-14T14:29:29;15.32;;;5.50;;
52041;SDS011;38052;45.944;13.624;2023-03-14T14:32:03;9.90;;;3.83;;
52041;SDS011;38052;45.944;13.624;2023-03-14T14:34:30;11.75;;;4.55;;
52041;SDS011;38052;45.944;13.624;2023-03-14T14:37:04;19.35;;;6.45;;
52041;SDS011;38052;45.944;13.624;2023-03-14T14:39:30;17.73;;;4.65;;
52041;SDS011;38052;45.944;13.624;2023-03-14T14:41:57;17.00;;;4.25;;
52041;SDS011;38052;45.944;13.624;2023-03-14T14:44:31;14.50;;;6.82;;
52041;SDS011;38052;45.944;13.624;2023-03-14T14:46:58;27.70;;;13.88;;
52041;SDS011;38052;45.944;13.624;2023-03-14T14:49:28;25.58;;;9.93;;
52041;SDS011;38052;45.944;13.624;2023-03-14T14:52:00;11.40;;;4.95;;
52041;SDS011;38052;45.944;13.624;2023-03-14T14:54:34;9.25;;;4.63;;
52041;SDS011;38052;45.944;13.624;2023-03-14T14:57:04;14.38;;;5.13;;
52041;SDS011;38052;45.944;13.624;2023-03-14T14:59:31;9.35;;;4.00;;
52041;SDS011;38052;45.944;13.624;2023-03-14T15:02:00;11.77;;;4.03;;
52041;SDS011;38052;45.944;13.624;2023-03-14T15:04:27;8.38;;;4.13;;
52041;SDS011;38052;45.944;13.624;2023-03-14T15:06:56;14.90;;;5.15;;
52041;SDS011;38052;45.944;13.624;2023-03-14T15:09:22;9.65;;;4.65;;
52041;SDS011;38052;45.944;13.624;2023-03-14T15:11:49;12.40;;;4.90;;
52041;SDS011;38052;45.944;13.624;2023-03-14T15:14:15;17.10;;;7.00;;
52041;SDS011;38052;45.944;13.624;2023-03-14T15:16:42;13.02;;;5.30;;
52041;SDS011;38052;45.944;13.624;2023-03-14T15:19:18;14.48;;;6.50;;
52041;SDS011;38052;45.944;13.624;2023-03-14T15:21:45;8.70;;;4.30;;
52041;SDS011;38052;45.944;13.624;2023-03-14T15:24:12;11.77;;;5.72;;
52041;SDS011;38052;45.944;13.624;2023-03-14T15:26:38;12.68;;;4.90;;
52041;SDS011;38052;45.944;13.624;2023-03-14T15:29:04;15.70;;;4.38;;
52041;SDS011;38052;45.944;13.624;2023-03-14T15:31:33;11.63;;;4.22;;
52041;SDS011;38052;45.944;13.624;2023-03-14T15:34:00;12.70;;;5.25;;
52041;SDS011;38052;45.944;13.624;2023-03-14T15:36:27;10.68;;;4.03;;
52041;SDS011;38052;45.944;13.624;2023-03-14T15:38:55;10.30;;;4.50;;
52041;SDS011;38052;45.944;13.624;2023-03-14T15:41:21;9.60;;;4.28;;
52041;SDS011;38052;45.944;13.624;2023-03-14T15:43:49;9.60;;;4.50;;
52041;SDS011;38052;45.944;13.624;2023-03-14T15:46:15;13.60;;;5.25;;
52041;SDS011;38052;45.944;13.624;2023-03-14T15:48:45;9.57;;;4.03;;
52041;SDS011;38052;45.944;13.624;2023-03-14T15:51:12;12.52;;;5.15;;
52041;SDS011;38052;45.944;13.624;2023-03-14T15:53:38;15.93;;;7.15;;